sensor_id;sensor_type;location;lat;lon;timestamp;temperature;humidity
1570;DHT22;778;50.120;8.698;2022-09-13T00:01:08;18.10;99.90
1570;DHT22;778;50.120;8.698;2022-09-13T00:03:36;18.00;99.90
1570;DHT22;778;50.120;8.698;2022-09-13T00:06:09;18.00;99.90
1570;DHT22;778;50.120;8.698;2022-09-13T00:08:41;18.00;99.90
1570;DHT22;778;50.120;8.698;2022-09-13T00:11:15;18.00;99.90
1570;DHT22;778;50.120;8.698;2022-09-13T00:13:44;17.90;99.90
1570;DHT22;778;50.120;8.698;2022-09-13T00:16:15;17.90;99.90
1570;DHT22;778;50.120;8.698;2022-09-13T00:18:45;17.90;99.90
1570;DHT22;778;50.120;8.698;2022-09-13T00:21:15;17.90;99.90
1570;DHT22;778;50.120;8.698;2022-09-13T00:23:48;17.80;99.90
1570;DHT22;778;50.120;8.698;2022-09-13T00:26:19;17.70;99.90
1570;DHT22;778;50.120;8.698;2022-09-13T00:28:49;17.70;99.90
1570;DHT22;778;50.120;8.698;2022-09-13T00:31:19;17.70;99.90
1570;DHT22;778;50.120;8.698;2022-09-13T00:33:49;17.60;99.90
1570;DHT22;778;50.120;8.698;2022-09-13T00:36:18;17.60;99.90
1570;DHT22;778;50.120;8.698;2022-09-13T00:38:48;17.50;99.90
1570;DHT22;778;50.120;8.698;2022-09-13T00:41:18;17.50;99.90
1570;DHT22;778;50.120;8.698;2022-09-13T00:43:49;17.40;99.90
1570;DHT22;778;50.120;8.698;2022-09-13T00:46:24;17.40;99.90
1570;DHT22;778;50.120;8.698;2022-09-13T00:49:14;17.40;99.90
1570;DHT22;778;50.120;8.698;2022-09-13T00:51:50;17.30;99.90
1570;DHT22;778;50.120;8.698;2022-09-13T00:54:26;17.30;99.90
1570;DHT22;778;50.120;8.698;2022-09-13T00:56:59;17.20;99.90
1570;DHT22;778;50.120;8.698;2022-09-13T00:59:32;17.20;99.90
1570;DHT22;778;50.120;8.698;2022-09-13T01:02:02;17.10;99.90
1570;DHT22;778;50.120;8.698;2022-09-13T01:04:33;17.00;99.90
1570;DHT22;778;50.120;8.698;2022-09-13T01:07:06;17.00;99.90
1570;DHT22;778;50.120;8.698;2022-09-13T01:09:39;16.90;99.90
1570;DHT22;778;50.120;8.698;2022-09-13T01:12:16;16.90;99.90
1570;DHT22;778;50.120;8.698;2022-09-13T01:14:52;16.90;99.90
1570;DHT22;778;50.120;8.698;2022-09-13T01:17:22;16.80;99.90
1570;DHT22;778;50.120;8.698;2022-09-13T01:19:50;16.80;99.90
1570;DHT22;778;50.120;8.698;2022-09-13T01:26:32;16.60;99.90
1570;DHT22;778;50.120;8.698;2022-09-13T01:32:21;16.70;99.90
1570;DHT22;778;50.120;8.698;2022-09-13T01:35:01;16.80;99.90
1570;DHT22;778;50.120;8.698;2022-09-13T01:37:45;16.90;99.90
1570;DHT22;778;50.120;8.698;2022-09-13T01:40:29;16.80;99.90
1570;DHT22;778;50.120;8.698;2022-09-13T01:43:20;16.80;99.90
1570;DHT22;778;50.120;8.698;2022-09-13T01:45:59;16.90;99.90
1570;DHT22;778;50.120;8.698;2022-09-13T01:48:43;16.80;99.90
1570;DHT22;778;50.120;8.698;2022-09-13T01:51:23;16.80;99.90
1570;DHT22;778;50.120;8.698;2022-09-13T01:54:10;16.80;99.90
1570;DHT22;778;50.120;8.698;2022-09-13T01:56:50;16.80;99.90
1570;DHT22;778;50.120;8.698;2022-09-13T01:59:24;16.70;99.90
1570;DHT22;778;50.120;8.698;2022-09-13T02:02:00;16.70;99.90
1570;DHT22;778;50.120;8.698;2022-09-13T02:04:37;16.60;99.90
1570;DHT22;778;50.120;8.698;2022-09-13T02:07:11;16.60;99.90
1570;DHT22;778;50.120;8.698;2022-09-13T02:09:46;16.60;99.90
1570;DHT22;778;50.120;8.698;2022-09-13T02:12:18;16.70;99.90
1570;DHT22;778;50.120;8.698;2022-09-13T02:14:55;16.70;99.90
1570;DHT22;778;50.120;8.698;2022-09-13T02:17:29;16.70;99.90
1570;DHT22;778;50.120;8.698;2022-09-13T02:20:06;16.70;99.90
1570;DHT22;778;50.120;8.698;2022-09-13T02:22:40;16.70;99.90
1570;DHT22;778;50.120;8.698;2022-09-13T02:25:15;16.70;99.90
1570;DHT22;778;50.120;8.698;2022-09-13T02:27:49;16.70;99.90
1570;DHT22;778;50.120;8.698;2022-09-13T02:30:24;16.80;99.90
1570;DHT22;778;50.120;8.698;2022-09-13T02:32:54;16.80;99.90
1570;DHT22;778;50.120;8.698;2022-09-13T02:35:31;16.70;99.90
1570;DHT22;778;50.120;8.698;2022-09-13T02:38:04;16.80;99.90
1570;DHT22;778;50.120;8.698;2022-09-13T02:40:38;16.80;99.90
1570;DHT22;778;50.120;8.698;2022-09-13T02:43:13;16.70;99.90
1570;DHT22;778;50.120;8.698;2022-09-13T02:45:49;16.70;99.90
1570;DHT22;778;50.120;8.698;2022-09-13T02:48:24;16.70;99.90
1570;DHT22;778;50.120;8.698;2022-09-13T02:51:04;16.60;99.90
1570;DHT22;778;50.120;8.698;2022-09-13T02:53:37;16.60;99.90
1570;DHT22;778;50.120;8.698;2022-09-13T02:56:17;16.70;99.90
1570;DHT22;778;50.120;8.698;2022-09-13T02:58:52;16.70;99.90
1570;DHT22;778;50.120;8.698;2022-09-13T03:01:24;16.70;99.90
1570;DHT22;778;50.120;8.698;2022-09-13T03:03:53;16.70;99.90
1570;DHT22;778;50.120;8.698;2022-09-13T03:06:24;16.70;99.90
1570;DHT22;778;50.120;8.698;2022-09-13T03:08:57;16.80;99.90
1570;DHT22;778;50.120;8.698;2022-09-13T03:11:35;16.80;99.90
1570;DHT22;778;50.120;8.698;2022-09-13T03:14:21;16.60;99.90
1570;DHT22;778;50.120;8.698;2022-09-13T03:17:23;16.80;99.90
1570;DHT22;778;50.120;8.698;2022-09-13T03:20:05;16.90;99.90
1570;DHT22;778;50.120;8.698;2022-09-13T03:26:16;16.70;99.90
1570;DHT22;778;50.120;8.698;2022-09-13T03:28:54;16.60;99.90
1570;DHT22;778;50.120;8.698;2022-09-13T03:31:35;16.60;99.90
1570;DHT22;778;50.120;8.698;2022-09-13T03:34:12;16.60;99.90
1570;DHT22;778;50.120;8.698;2022-09-13T03:36:46;16.50;99.90
1570;DHT22;778;50.120;8.698;2022-09-13T03:39:27;16.60;99.90
1570;DHT22;778;50.120;8.698;2022-09-13T03:42:02;16.50;99.90
1570;DHT22;778;50.120;8.698;2022-09-13T03:44:34;16.50;99.90
1570;DHT22;778;50.120;8.698;2022-09-13T03:47:04;16.50;99.90
1570;DHT22;778;50.120;8.698;2022-09-13T03:49:36;16.40;99.90
1570;DHT22;778;50.120;8.698;2022-09-13T03:52:06;16.40;99.90
1570;DHT22;778;50.120;8.698;2022-09-13T03:54:37;16.50;99.90
1570;DHT22;778;50.120;8.698;2022-09-13T03:57:10;16.60;99.90
1570;DHT22;778;50.120;8.698;2022-09-13T03:59:43;16.70;99.90
1570;DHT22;778;50.120;8.698;2022-09-13T04:02:13;16.50;99.90
1570;DHT22;778;50.120;8.698;2022-09-13T04:04:43;16.40;99.90
1570;DHT22;778;50.120;8.698;2022-09-13T04:07:14;16.30;99.90
1570;DHT22;778;50.120;8.698;2022-09-13T04:09:45;16.20;99.90
1570;DHT22;778;50.120;8.698;2022-09-13T04:12:14;16.10;99.90
1570;DHT22;778;50.120;8.698;2022-09-13T04:14:43;16.10;99.90
1570;DHT22;778;50.120;8.698;2022-09-13T04:17:12;16.10;99.90
1570;DHT22;778;50.120;8.698;2022-09-13T04:19:41;16.10;99.90
1570;DHT22;778;50.120;8.698;2022-09-13T04:22:13;16.00;99.90
1570;DHT22;778;50.120;8.698;2022-09-13T04:24:41;16.00;99.90
1570;DHT22;778;50.120;8.698;2022-09-13T04:27:12;16.00;99.90
1570;DHT22;778;50.120;8.698;2022-09-13T04:29:40;15.90;99.90
1570;DHT22;778;50.120;8.698;2022-09-13T04:32:08;15.90;99.90
1570;DHT22;778;50.120;8.698;2022-09-13T04:34:37;15.90;99.90
1570;DHT22;778;50.120;8.698;2022-09-13T04:37:07;15.80;99.90
1570;DHT22;778;50.120;8.698;2022-09-13T04:39:35;15.80;99.90
1570;DHT22;778;50.120;8.698;2022-09-13T04:42:04;15.80;99.90
1570;DHT22;778;50.120;8.698;2022-09-13T04:44:35;15.80;99.90
1570;DHT22;778;50.120;8.698;2022-09-13T04:47:05;15.80;99.90
1570;DHT22;778;50.120;8.698;2022-09-13T04:49:34;15.80;99.90
1570;DHT22;778;50.120;8.698;2022-09-13T04:52:02;15.80;99.90
1570;DHT22;778;50.120;8.698;2022-09-13T04:54:30;15.80;99.90
1570;DHT22;778;50.120;8.698;2022-09-13T04:56:59;15.80;99.90
1570;DHT22;778;50.120;8.698;2022-09-13T04:59:27;15.80;99.90
1570;DHT22;778;50.120;8.698;2022-09-13T05:01:57;15.80;99.90
1570;DHT22;778;50.120;8.698;2022-09-13T05:04:25;15.90;99.90
1570;DHT22;778;50.120;8.698;2022-09-13T05:06:54;15.90;99.90
1570;DHT22;778;50.120;8.698;2022-09-13T05:09:23;15.80;99.90
1570;DHT22;778;50.120;8.698;2022-09-13T05:11:52;15.80;99.90
1570;DHT22;778;50.120;8.698;2022-09-13T05:14:20;15.80;99.90
1570;DHT22;778;50.120;8.698;2022-09-13T05:16:49;15.80;99.90
1570;DHT22;778;50.120;8.698;2022-09-13T05:19:18;15.80;99.90
1570;DHT22;778;50.120;8.698;2022-09-13T05:21:47;15.90;99.90
1570;DHT22;778;50.120;8.698;2022-09-13T05:24:15;15.90;99.90
1570;DHT22;778;50.120;8.698;2022-09-13T05:26:43;15.90;99.90
1570;DHT22;778;50.120;8.698;2022-09-13T05:29:12;15.90;99.90
1570;DHT22;778;50.120;8.698;2022-09-13T05:31:41;16.00;99.90
1570;DHT22;778;50.120;8.698;2022-09-13T05:34:11;16.00;99.90
1570;DHT22;778;50.120;8.698;2022-09-13T05:36:42;16.00;99.90
1570;DHT22;778;50.120;8.698;2022-09-13T05:39:12;15.90;99.90
1570;DHT22;778;50.120;8.698;2022-09-13T05:42:04;15.90;99.90
1570;DHT22;778;50.120;8.698;2022-09-13T05:44:32;16.00;99.90
1570;DHT22;778;50.120;8.698;2022-09-13T05:47:01;16.10;99.90
1570;DHT22;778;50.120;8.698;2022-09-13T05:49:29;16.10;99.90
1570;DHT22;778;50.120;8.698;2022-09-13T05:51:59;16.10;99.90
1570;DHT22;778;50.120;8.698;2022-09-13T05:54:27;16.30;99.90
1570;DHT22;778;50.120;8.698;2022-09-13T05:56:55;16.30;99.90
1570;DHT22;778;50.120;8.698;2022-09-13T05:59:24;16.30;99.90
1570;DHT22;778;50.120;8.698;2022-09-13T06:01:52;16.30;99.90
1570;DHT22;778;50.120;8.698;2022-09-13T06:04:21;16.30;99.90
1570;DHT22;778;50.120;8.698;2022-09-13T06:06:49;16.30;99.90
1570;DHT22;778;50.120;8.698;2022-09-13T06:09:19;16.30;99.90
1570;DHT22;778;50.120;8.698;2022-09-13T06:11:47;16.40;99.90
1570;DHT22;778;50.120;8.698;2022-09-13T06:14:16;16.40;99.90
1570;DHT22;778;50.120;8.698;2022-09-13T06:16:44;16.40;99.90
1570;DHT22;778;50.120;8.698;2022-09-13T06:19:12;16.40;99.90
1570;DHT22;778;50.120;8.698;2022-09-13T06:21:41;16.50;99.90
1570;DHT22;778;50.120;8.698;2022-09-13T06:24:09;16.50;99.90
1570;DHT22;778;50.120;8.698;2022-09-13T06:26:39;16.50;99.90
1570;DHT22;778;50.120;8.698;2022-09-13T06:29:10;16.50;99.90
1570;DHT22;778;50.120;8.698;2022-09-13T06:31:38;16.50;99.90
1570;DHT22;778;50.120;8.698;2022-09-13T06:34:11;16.50;99.90
1570;DHT22;778;50.120;8.698;2022-09-13T06:36:41;16.50;99.90
1570;DHT22;778;50.120;8.698;2022-09-13T06:39:09;16.70;99.90
1570;DHT22;778;50.120;8.698;2022-09-13T06:41:39;16.70;99.90
1570;DHT22;778;50.120;8.698;2022-09-13T06:44:08;16.70;99.90
1570;DHT22;778;50.120;8.698;2022-09-13T06:46:36;16.80;99.90
1570;DHT22;778;50.120;8.698;2022-09-13T06:49:06;16.80;99.90
1570;DHT22;778;50.120;8.698;2022-09-13T06:51:35;16.90;99.90
1570;DHT22;778;50.120;8.698;2022-09-13T06:54:04;16.90;99.90
1570;DHT22;778;50.120;8.698;2022-09-13T06:56:34;16.90;99.90
1570;DHT22;778;50.120;8.698;2022-09-13T06:59:06;16.90;99.90
1570;DHT22;778;50.120;8.698;2022-09-13T07:01:37;16.90;99.90
1570;DHT22;778;50.120;8.698;2022-09-13T07:04:08;16.90;99.90
1570;DHT22;778;50.120;8.698;2022-09-13T07:06:39;17.00;99.90
1570;DHT22;778;50.120;8.698;2022-09-13T07:09:11;17.10;99.90
1570;DHT22;778;50.120;8.698;2022-09-13T07:11:41;17.10;99.90
1570;DHT22;778;50.120;8.698;2022-09-13T07:14:14;17.10;99.90
1570;DHT22;778;50.120;8.698;2022-09-13T07:16:43;17.20;99.90
1570;DHT22;778;50.120;8.698;2022-09-13T07:19:14;17.20;99.90
1570;DHT22;778;50.120;8.698;2022-09-13T07:21:44;17.20;99.90
1570;DHT22;778;50.120;8.698;2022-09-13T07:24:14;17.30;99.90
1570;DHT22;778;50.120;8.698;2022-09-13T07:26:43;17.40;99.90
1570;DHT22;778;50.120;8.698;2022-09-13T07:29:15;17.40;99.90
1570;DHT22;778;50.120;8.698;2022-09-13T07:31:46;17.50;99.90
1570;DHT22;778;50.120;8.698;2022-09-13T07:34:17;17.50;99.90
1570;DHT22;778;50.120;8.698;2022-09-13T07:36:47;17.60;99.90
1570;DHT22;778;50.120;8.698;2022-09-13T07:39:16;17.60;99.90
1570;DHT22;778;50.120;8.698;2022-09-13T07:41:49;17.60;99.90
1570;DHT22;778;50.120;8.698;2022-09-13T07:44:20;17.60;99.90
1570;DHT22;778;50.120;8.698;2022-09-13T07:46:49;17.60;99.90
1570;DHT22;778;50.120;8.698;2022-09-13T07:49:18;17.60;99.90
1570;DHT22;778;50.120;8.698;2022-09-13T07:51:47;17.60;99.90
1570;DHT22;778;50.120;8.698;2022-09-13T07:54:18;17.60;99.90
1570;DHT22;778;50.120;8.698;2022-09-13T07:56:46;17.60;99.90
1570;DHT22;778;50.120;8.698;2022-09-13T07:59:19;17.60;99.90
1570;DHT22;778;50.120;8.698;2022-09-13T08:01:50;17.70;99.90
1570;DHT22;778;50.120;8.698;2022-09-13T08:04:22;17.70;99.90
1570;DHT22;778;50.120;8.698;2022-09-13T08:06:52;17.80;99.90
1570;DHT22;778;50.120;8.698;2022-09-13T08:09:20;17.90;99.90
1570;DHT22;778;50.120;8.698;2022-09-13T08:11:50;18.00;99.90
1570;DHT22;778;50.120;8.698;2022-09-13T08:14:21;18.00;99.90
1570;DHT22;778;50.120;8.698;2022-09-13T08:16:53;18.00;99.90
1570;DHT22;778;50.120;8.698;2022-09-13T08:19:22;18.00;99.90
1570;DHT22;778;50.120;8.698;2022-09-13T08:21:50;18.10;99.90
1570;DHT22;778;50.120;8.698;2022-09-13T08:24:19;18.20;99.90
1570;DHT22;778;50.120;8.698;2022-09-13T08:26:49;18.30;99.90
1570;DHT22;778;50.120;8.698;2022-09-13T08:29:18;18.40;99.90
1570;DHT22;778;50.120;8.698;2022-09-13T08:31:48;18.40;99.90
1570;DHT22;778;50.120;8.698;2022-09-13T08:34:16;18.40;99.90
1570;DHT22;778;50.120;8.698;2022-09-13T08:36:47;18.40;99.90
1570;DHT22;778;50.120;8.698;2022-09-13T08:39:15;18.40;99.90
1570;DHT22;778;50.120;8.698;2022-09-13T08:44:52;18.50;99.90
1570;DHT22;778;50.120;8.698;2022-09-13T08:47:29;18.60;99.90
1570;DHT22;778;50.120;8.698;2022-09-13T08:50:08;18.60;99.90
1570;DHT22;778;50.120;8.698;2022-09-13T08:52:46;18.70;99.90
1570;DHT22;778;50.120;8.698;2022-09-13T08:55:24;18.80;99.90
1570;DHT22;778;50.120;8.698;2022-09-13T08:58:05;18.90;99.90
1570;DHT22;778;50.120;8.698;2022-09-13T09:00:45;19.20;99.90
1570;DHT22;778;50.120;8.698;2022-09-13T09:03:23;19.40;99.90
1570;DHT22;778;50.120;8.698;2022-09-13T09:05:57;19.50;99.90
1570;DHT22;778;50.120;8.698;2022-09-13T09:08:29;19.60;99.90
1570;DHT22;778;50.120;8.698;2022-09-13T09:11:03;19.60;99.90
1570;DHT22;778;50.120;8.698;2022-09-13T09:13:39;19.60;99.90
1570;DHT22;778;50.120;8.698;2022-09-13T09:16:24;19.60;99.90
1570;DHT22;778;50.120;8.698;2022-09-13T09:19:09;19.50;99.90
1570;DHT22;778;50.120;8.698;2022-09-13T09:21:43;19.50;99.90
1570;DHT22;778;50.120;8.698;2022-09-13T09:24:16;19.30;99.90
1570;DHT22;778;50.120;8.698;2022-09-13T09:26:47;19.20;99.90
1570;DHT22;778;50.120;8.698;2022-09-13T09:29:18;19.10;99.90
1570;DHT22;778;50.120;8.698;2022-09-13T09:32:05;19.10;99.90
1570;DHT22;778;50.120;8.698;2022-09-13T09:34:58;19.00;99.90
1570;DHT22;778;50.120;8.698;2022-09-13T09:37:36;19.00;99.90
1570;DHT22;778;50.120;8.698;2022-09-13T09:40:08;19.00;99.90
1570;DHT22;778;50.120;8.698;2022-09-13T09:42:41;18.90;99.90
1570;DHT22;778;50.120;8.698;2022-09-13T09:45:24;18.90;99.90
1570;DHT22;778;50.120;8.698;2022-09-13T09:47:56;18.80;99.90
1570;DHT22;778;50.120;8.698;2022-09-13T09:50:31;18.70;99.90
1570;DHT22;778;50.120;8.698;2022-09-13T09:53:03;18.70;99.90
1570;DHT22;778;50.120;8.698;2022-09-13T09:55:41;18.80;99.90
1570;DHT22;778;50.120;8.698;2022-09-13T09:58:13;18.80;99.90
1570;DHT22;778;50.120;8.698;2022-09-13T10:00:50;18.90;99.90
1570;DHT22;778;50.120;8.698;2022-09-13T10:03:25;18.90;99.90
1570;DHT22;778;50.120;8.698;2022-09-13T10:06:04;18.80;99.90
1570;DHT22;778;50.120;8.698;2022-09-13T10:08:35;18.80;99.90
1570;DHT22;778;50.120;8.698;2022-09-13T10:11:05;18.80;99.90
1570;DHT22;778;50.120;8.698;2022-09-13T10:13:34;18.80;99.90
1570;DHT22;778;50.120;8.698;2022-09-13T10:16:04;18.70;99.90
1570;DHT22;778;50.120;8.698;2022-09-13T10:18:36;18.70;99.90
1570;DHT22;778;50.120;8.698;2022-09-13T10:21:22;18.60;99.90
1570;DHT22;778;50.120;8.698;2022-09-13T10:24:15;18.60;99.90
1570;DHT22;778;50.120;8.698;2022-09-13T10:26:45;18.70;99.90
1570;DHT22;778;50.120;8.698;2022-09-13T10:29:15;18.70;99.90
1570;DHT22;778;50.120;8.698;2022-09-13T10:31:46;18.80;99.90
1570;DHT22;778;50.120;8.698;2022-09-13T10:34:20;18.90;99.90
1570;DHT22;778;50.120;8.698;2022-09-13T10:36:53;19.00;99.90
1570;DHT22;778;50.120;8.698;2022-09-13T10:39:25;19.00;99.90
1570;DHT22;778;50.120;8.698;2022-09-13T10:41:57;19.10;99.90
1570;DHT22;778;50.120;8.698;2022-09-13T10:44:36;19.10;99.90
1570;DHT22;778;50.120;8.698;2022-09-13T10:47:17;19.20;99.90
1570;DHT22;778;50.120;8.698;2022-09-13T10:49:50;19.20;99.90
1570;DHT22;778;50.120;8.698;2022-09-13T10:52:32;19.20;99.90
1570;DHT22;778;50.120;8.698;2022-09-13T10:55:29;19.30;99.90
1570;DHT22;778;50.120;8.698;2022-09-13T10:58:19;19.50;99.90
1570;DHT22;778;50.120;8.698;2022-09-13T11:01:06;19.60;99.90
1570;DHT22;778;50.120;8.698;2022-09-13T11:03:59;19.60;99.90
1570;DHT22;778;50.120;8.698;2022-09-13T11:06:54;19.60;99.90
1570;DHT22;778;50.120;8.698;2022-09-13T11:09:33;19.70;99.90
1570;DHT22;778;50.120;8.698;2022-09-13T11:12:09;19.90;99.90
1570;DHT22;778;50.120;8.698;2022-09-13T11:14:55;20.00;99.90
1570;DHT22;778;50.120;8.698;2022-09-13T11:17:44;20.00;99.90
1570;DHT22;778;50.120;8.698;2022-09-13T11:20:34;20.00;99.90
1570;DHT22;778;50.120;8.698;2022-09-13T11:23:25;20.00;99.90
1570;DHT22;778;50.120;8.698;2022-09-13T11:26:19;20.00;99.90
1570;DHT22;778;50.120;8.698;2022-09-13T11:29:13;20.10;99.90
1570;DHT22;778;50.120;8.698;2022-09-13T11:31:56;20.20;99.90
1570;DHT22;778;50.120;8.698;2022-09-13T11:34:43;20.20;99.90
1570;DHT22;778;50.120;8.698;2022-09-13T11:37:39;20.20;99.90
1570;DHT22;778;50.120;8.698;2022-09-13T11:40:28;20.30;99.90
1570;DHT22;778;50.120;8.698;2022-09-13T11:43:14;20.40;99.90
1570;DHT22;778;50.120;8.698;2022-09-13T11:45:57;20.40;99.90
1570;DHT22;778;50.120;8.698;2022-09-13T11:49:04;20.40;99.90
1570;DHT22;778;50.120;8.698;2022-09-13T11:51:49;20.40;99.90
1570;DHT22;778;50.120;8.698;2022-09-13T11:54:35;20.50;99.90
1570;DHT22;778;50.120;8.698;2022-09-13T11:57:18;20.40;99.90
1570;DHT22;778;50.120;8.698;2022-09-13T11:59:51;20.40;99.90
1570;DHT22;778;50.120;8.698;2022-09-13T12:02:26;20.30;99.90
1570;DHT22;778;50.120;8.698;2022-09-13T12:04:58;20.40;99.90
1570;DHT22;778;50.120;8.698;2022-09-13T12:07:50;20.40;99.90
1570;DHT22;778;50.120;8.698;2022-09-13T12:10:23;20.50;99.90
1570;DHT22;778;50.120;8.698;2022-09-13T12:12:56;20.60;99.90
1570;DHT22;778;50.120;8.698;2022-09-13T12:15:34;20.70;99.90
1570;DHT22;778;50.120;8.698;2022-09-13T12:18:08;20.70;99.90
1570;DHT22;778;50.120;8.698;2022-09-13T12:20:43;20.80;99.90
1570;DHT22;778;50.120;8.698;2022-09-13T12:23:21;20.80;99.90
1570;DHT22;778;50.120;8.698;2022-09-13T12:25:56;20.80;99.90
1570;DHT22;778;50.120;8.698;2022-09-13T12:28:29;20.90;99.90
1570;DHT22;778;50.120;8.698;2022-09-13T12:31:04;21.00;99.90
1570;DHT22;778;50.120;8.698;2022-09-13T12:33:38;21.10;99.90
1570;DHT22;778;50.120;8.698;2022-09-13T12:42:48;21.60;99.90
1570;DHT22;778;50.120;8.698;2022-09-13T12:45:52;21.50;99.90
1570;DHT22;778;50.120;8.698;2022-09-13T12:48:55;21.50;99.90
1570;DHT22;778;50.120;8.698;2022-09-13T12:51:50;21.50;99.90
1570;DHT22;778;50.120;8.698;2022-09-13T12:54:41;21.50;99.90
1570;DHT22;778;50.120;8.698;2022-09-13T12:57:37;21.50;99.90
1570;DHT22;778;50.120;8.698;2022-09-13T13:00:17;21.40;99.90
1570;DHT22;778;50.120;8.698;2022-09-13T13:03:03;21.50;99.90
1570;DHT22;778;50.120;8.698;2022-09-13T13:05:39;21.40;99.90
1570;DHT22;778;50.120;8.698;2022-09-13T13:08:25;21.50;99.90
1570;DHT22;778;50.120;8.698;2022-09-13T13:11:01;21.50;99.90
1570;DHT22;778;50.120;8.698;2022-09-13T13:13:36;21.60;99.90
1570;DHT22;778;50.120;8.698;2022-09-13T13:16:22;21.60;99.90
1570;DHT22;778;50.120;8.698;2022-09-13T13:18:55;21.60;99.90
1570;DHT22;778;50.120;8.698;2022-09-13T13:21:36;21.60;99.90
1570;DHT22;778;50.120;8.698;2022-09-13T13:24:37;21.70;99.90
1570;DHT22;778;50.120;8.698;2022-09-13T13:27:41;21.80;99.90
1570;DHT22;778;50.120;8.698;2022-09-13T13:30:40;21.90;99.90
1570;DHT22;778;50.120;8.698;2022-09-13T13:33:22;21.90;99.90
1570;DHT22;778;50.120;8.698;2022-09-13T13:35:55;21.90;99.90
1570;DHT22;778;50.120;8.698;2022-09-13T13:38:41;21.90;99.90
1570;DHT22;778;50.120;8.698;2022-09-13T13:41:42;21.90;99.90
1570;DHT22;778;50.120;8.698;2022-09-13T13:47:54;22.00;99.90
1570;DHT22;778;50.120;8.698;2022-09-13T13:51:20;22.00;99.90
1570;DHT22;778;50.120;8.698;2022-09-13T13:54:03;22.00;99.90
1570;DHT22;778;50.120;8.698;2022-09-13T13:56:47;22.00;99.90
1570;DHT22;778;50.120;8.698;2022-09-13T13:59:21;22.00;99.90
1570;DHT22;778;50.120;8.698;2022-09-13T14:01:54;21.90;99.90
1570;DHT22;778;50.120;8.698;2022-09-13T14:04:52;21.90;99.90
1570;DHT22;778;50.120;8.698;2022-09-13T14:07:51;22.00;99.90
1570;DHT22;778;50.120;8.698;2022-09-13T14:10:36;22.00;99.90
1570;DHT22;778;50.120;8.698;2022-09-13T14:13:21;22.10;99.90
1570;DHT22;778;50.120;8.698;2022-09-13T14:16:02;22.10;99.90
1570;DHT22;778;50.120;8.698;2022-09-13T14:21:37;22.10;99.90
1570;DHT22;778;50.120;8.698;2022-09-13T14:24:17;22.00;99.90
1570;DHT22;778;50.120;8.698;2022-09-13T14:26:50;22.00;99.90
1570;DHT22;778;50.120;8.698;2022-09-13T14:29:21;21.80;99.90
1570;DHT22;778;50.120;8.698;2022-09-13T14:31:53;21.80;99.90
1570;DHT22;778;50.120;8.698;2022-09-13T14:34:27;21.80;99.90
1570;DHT22;778;50.120;8.698;2022-09-13T14:36:58;21.70;99.90
1570;DHT22;778;50.120;8.698;2022-09-13T14:39:30;21.70;99.90
1570;DHT22;778;50.120;8.698;2022-09-13T14:42:09;21.70;99.90
1570;DHT22;778;50.120;8.698;2022-09-13T14:44:44;21.60;99.90
1570;DHT22;778;50.120;8.698;2022-09-13T14:47:17;21.60;99.90
1570;DHT22;778;50.120;8.698;2022-09-13T14:49:52;21.50;99.90
1570;DHT22;778;50.120;8.698;2022-09-13T14:52:29;21.50;99.90
1570;DHT22;778;50.120;8.698;2022-09-13T14:55:02;21.40;99.90
1570;DHT22;778;50.120;8.698;2022-09-13T14:57:37;21.30;99.90
1570;DHT22;778;50.120;8.698;2022-09-13T15:00:16;21.30;99.90
1570;DHT22;778;50.120;8.698;2022-09-13T15:02:48;21.20;99.90
1570;DHT22;778;50.120;8.698;2022-09-13T15:05:19;21.20;99.90
1570;DHT22;778;50.120;8.698;2022-09-13T15:07:49;21.20;99.90
1570;DHT22;778;50.120;8.698;2022-09-13T15:10:24;21.20;99.90
1570;DHT22;778;50.120;8.698;2022-09-13T15:13:01;21.20;99.90
1570;DHT22;778;50.120;8.698;2022-09-13T15:15:36;21.20;99.90
1570;DHT22;778;50.120;8.698;2022-09-13T15:18:21;21.20;99.90
1570;DHT22;778;50.120;8.698;2022-09-13T15:20:52;21.20;99.90
1570;DHT22;778;50.120;8.698;2022-09-13T15:23:24;21.20;99.90
1570;DHT22;778;50.120;8.698;2022-09-13T15:25:56;21.20;99.90
1570;DHT22;778;50.120;8.698;2022-09-13T15:28:30;21.10;99.90
1570;DHT22;778;50.120;8.698;2022-09-13T15:31:00;21.10;99.90
1570;DHT22;778;50.120;8.698;2022-09-13T15:33:30;21.10;99.90
1570;DHT22;778;50.120;8.698;2022-09-13T15:36:26;21.10;99.90
1570;DHT22;778;50.120;8.698;2022-09-13T15:38:59;21.10;99.90
1570;DHT22;778;50.120;8.698;2022-09-13T15:41:32;21.10;99.90
1570;DHT22;778;50.120;8.698;2022-09-13T15:44:03;21.10;99.90
1570;DHT22;778;50.120;8.698;2022-09-13T15:46:36;21.00;99.90
1570;DHT22;778;50.120;8.698;2022-09-13T15:49:15;20.90;99.90
1570;DHT22;778;50.120;8.698;2022-09-13T15:51:45;20.90;99.90
1570;DHT22;778;50.120;8.698;2022-09-13T15:54:15;20.90;99.90
1570;DHT22;778;50.120;8.698;2022-09-13T15:56:47;20.90;99.90
1570;DHT22;778;50.120;8.698;2022-09-13T15:59:18;20.90;99.90
1570;DHT22;778;50.120;8.698;2022-09-13T16:01:49;20.80;99.90
1570;DHT22;778;50.120;8.698;2022-09-13T16:04:18;20.80;99.90
1570;DHT22;778;50.120;8.698;2022-09-13T16:06:47;20.80;99.90
1570;DHT22;778;50.120;8.698;2022-09-13T16:09:17;20.90;99.90
1570;DHT22;778;50.120;8.698;2022-09-13T16:11:48;20.80;99.90
1570;DHT22;778;50.120;8.698;2022-09-13T16:14:18;20.80;99.90
1570;DHT22;778;50.120;8.698;2022-09-13T16:16:47;20.80;99.90
1570;DHT22;778;50.120;8.698;2022-09-13T16:19:17;20.80;99.90
1570;DHT22;778;50.120;8.698;2022-09-13T16:21:46;20.80;99.90
1570;DHT22;778;50.120;8.698;2022-09-13T16:24:15;20.80;99.90
1570;DHT22;778;50.120;8.698;2022-09-13T16:26:44;20.80;99.90
1570;DHT22;778;50.120;8.698;2022-09-13T16:29:13;20.80;99.90
1570;DHT22;778;50.120;8.698;2022-09-13T16:31:42;20.70;99.90
1570;DHT22;778;50.120;8.698;2022-09-13T16:34:10;20.70;99.90
1570;DHT22;778;50.120;8.698;2022-09-13T16:36:38;20.70;99.90
1570;DHT22;778;50.120;8.698;2022-09-13T16:39:07;20.60;99.90
1570;DHT22;778;50.120;8.698;2022-09-13T16:41:37;20.60;99.90
1570;DHT22;778;50.120;8.698;2022-09-13T16:44:06;20.60;99.90
1570;DHT22;778;50.120;8.698;2022-09-13T16:46:36;20.50;99.90
1570;DHT22;778;50.120;8.698;2022-09-13T16:49:04;20.50;99.90
1570;DHT22;778;50.120;8.698;2022-09-13T16:51:33;20.50;99.90
1570;DHT22;778;50.120;8.698;2022-09-13T16:54:03;20.50;99.90
1570;DHT22;778;50.120;8.698;2022-09-13T16:56:32;20.50;99.90
1570;DHT22;778;50.120;8.698;2022-09-13T16:59:00;20.50;99.90
1570;DHT22;778;50.120;8.698;2022-09-13T17:01:28;20.50;99.90
1570;DHT22;778;50.120;8.698;2022-09-13T17:03:59;20.50;99.90
1570;DHT22;778;50.120;8.698;2022-09-13T17:06:27;20.50;99.90
1570;DHT22;778;50.120;8.698;2022-09-13T17:08:57;20.50;99.90
1570;DHT22;778;50.120;8.698;2022-09-13T17:11:29;20.40;99.90
1570;DHT22;778;50.120;8.698;2022-09-13T17:13:59;20.40;99.90
1570;DHT22;778;50.120;8.698;2022-09-13T17:16:32;20.40;99.90
1570;DHT22;778;50.120;8.698;2022-09-13T17:19:06;20.40;99.90
1570;DHT22;778;50.120;8.698;2022-09-13T17:21:36;20.30;99.90
1570;DHT22;778;50.120;8.698;2022-09-13T17:24:06;20.30;99.90
1570;DHT22;778;50.120;8.698;2022-09-13T17:26:39;20.30;99.90
1570;DHT22;778;50.120;8.698;2022-09-13T17:29:09;20.30;99.90
1570;DHT22;778;50.120;8.698;2022-09-13T17:31:39;20.30;99.90
1570;DHT22;778;50.120;8.698;2022-09-13T17:34:11;20.30;99.90